sensor_id;sensor_type;location;lat;lon;timestamp;P1;durP1;ratioP1;P2;durP2;ratioP2
69629;SDS011;56857;52.212;5.496;2023-04-24T00:01:32;3.72;;;2.03;;
69629;SDS011;56857;52.212;5.496;2023-04-24T00:03:57;4.47;;;2.10;;
69629;SDS011;56857;52.212;5.496;2023-04-24T00:06:25;3.70;;;2.00;;
69629;SDS011;56857;52.212;5.496;2023-04-24T00:08:51;3.42;;;1.90;;
69629;SDS011;56857;52.212;5.496;2023-04-24T00:11:16;2.78;;;1.67;;
69629;SDS011;56857;52.212;5.496;2023-04-24T00:13:41;4.35;;;1.60;;
69629;SDS011;56857;52.212;5.496;2023-04-24T00:16:07;4.25;;;1.67;;
69629;SDS011;56857;52.212;5.496;2023-04-24T00:18:34;3.42;;;1.90;;
69629;SDS011;56857;52.212;5.496;2023-04-24T00:20:59;3.45;;;2.00;;
69629;SDS011;56857;52.212;5.496;2023-04-24T00:23:24;2.45;;;1.60;;
69629;SDS011;56857;52.212;5.496;2023-04-24T00:25:50;2.88;;;1.52;;
69629;SDS011;56857;52.212;5.496;2023-04-24T00:28:15;2.58;;;1.48;;
69629;SDS011;56857;52.212;5.496;2023-04-24T00:30:40;4.75;;;1.90;;
69629;SDS011;56857;52.212;5.496;2023-04-24T00:33:05;2.63;;;1.60;;
69629;SDS011;56857;52.212;5.496;2023-04-24T00:35:31;3.63;;;1.75;;
69629;SDS011;56857;52.212;5.496;2023-04-24T00:37:56;2.28;;;1.50;;
69629;SDS011;56857;52.212;5.496;2023-04-24T00:40:21;2.80;;;1.30;;
69629;SDS011;56857;52.212;5.496;2023-04-24T00:42:47;3.15;;;1.40;;
69629;SDS011;56857;52.212;5.496;2023-04-24T00:45:13;2.13;;;1.50;;
69629;SDS011;56857;52.212;5.496;2023-04-24T00:47:39;3.75;;;1.50;;
69629;SDS011;56857;52.212;5.496;2023-04-24T00:50:05;2.33;;;1.42;;
69629;SDS011;56857;52.212;5.496;2023-04-24T00:52:31;2.25;;;1.40;;
69629;SDS011;56857;52.212;5.496;2023-04-24T00:54:58;1.85;;;1.30;;
69629;SDS011;56857;52.212;5.496;2023-04-24T00:57:24;3.75;;;1.40;;
69629;SDS011;56857;52.212;5.496;2023-04-24T00:59:51;2.35;;;1.50;;
69629;SDS011;56857;52.212;5.496;2023-04-24T01:02:17;1.90;;;1.27;;
69629;SDS011;56857;52.212;5.496;2023-04-24T01:04:43;3.50;;;1.27;;
69629;SDS011;56857;52.212;5.496;2023-04-24T01:07:08;2.85;;;1.60;;
69629;SDS011;56857;52.212;5.496;2023-04-24T01:09:34;2.20;;;1.40;;
69629;SDS011;56857;52.212;5.496;2023-04-24T01:12:01;2.22;;;1.38;;
69629;SDS011;56857;52.212;5.496;2023-04-24T01:14:26;2.47;;;1.30;;
69629;SDS011;56857;52.212;5.496;2023-04-24T01:16:52;4.78;;;1.50;;
69629;SDS011;56857;52.212;5.496;2023-04-24T01:19:27;3.28;;;1.45;;
69629;SDS011;56857;52.212;5.496;2023-04-24T01:21:54;2.50;;;1.30;;
69629;SDS011;56857;52.212;5.496;2023-04-24T01:24:25;2.90;;;1.70;;
69629;SDS011;56857;52.212;5.496;2023-04-24T01:26:50;2.97;;;1.55;;
69629;SDS011;56857;52.212;5.496;2023-04-24T01:29:16;3.47;;;1.33;;
69629;SDS011;56857;52.212;5.496;2023-04-24T01:31:41;3.70;;;1.67;;
69629;SDS011;56857;52.212;5.496;2023-04-24T01:34:07;3.90;;;1.73;;
69629;SDS011;56857;52.212;5.496;2023-04-24T01:36:33;3.78;;;1.83;;
69629;SDS011;56857;52.212;5.496;2023-04-24T01:39:00;3.70;;;1.80;;
69629;SDS011;56857;52.212;5.496;2023-04-24T01:41:25;3.85;;;1.88;;
69629;SDS011;56857;52.212;5.496;2023-04-24T01:43:51;5.15;;;2.20;;
69629;SDS011;56857;52.212;5.496;2023-04-24T01:46:17;4.40;;;2.22;;
69629;SDS011;56857;52.212;5.496;2023-04-24T01:48:42;4.30;;;2.42;;
69629;SDS011;56857;52.212;5.496;2023-04-24T01:51:11;4.97;;;2.75;;
69629;SDS011;56857;52.212;5.496;2023-04-24T01:53:36;6.80;;;2.60;;
69629;SDS011;56857;52.212;5.496;2023-04-24T01:56:02;5.47;;;3.17;;
69629;SDS011;56857;52.212;5.496;2023-04-24T01:58:27;5.00;;;2.58;;
69629;SDS011;56857;52.212;5.496;2023-04-24T02:00:53;6.07;;;3.25;;
69629;SDS011;56857;52.212;5.496;2023-04-24T02:03:21;5.63;;;3.42;;
69629;SDS011;56857;52.212;5.496;2023-04-24T02:05:46;8.63;;;3.65;;
69629;SDS011;56857;52.212;5.496;2023-04-24T02:08:12;6.10;;;3.80;;
69629;SDS011;56857;52.212;5.496;2023-04-24T02:10:37;6.70;;;3.72;;
69629;SDS011;56857;52.212;5.496;2023-04-24T02:13:03;5.97;;;3.80;;
69629;SDS011;56857;52.212;5.496;2023-04-24T02:15:28;7.25;;;3.80;;
69629;SDS011;56857;52.212;5.496;2023-04-24T02:17:54;7.15;;;4.40;;
69629;SDS011;56857;52.212;5.496;2023-04-24T02:20:19;7.18;;;3.80;;
69629;SDS011;56857;52.212;5.496;2023-04-24T02:22:44;6.88;;;3.92;;
69629;SDS011;56857;52.212;5.496;2023-04-24T02:25:11;6.65;;;3.85;;
69629;SDS011;56857;52.212;5.496;2023-04-24T02:27:37;7.20;;;3.80;;
69629;SDS011;56857;52.212;5.496;2023-04-24T02:30:03;6.03;;;3.70;;
69629;SDS011;56857;52.212;5.496;2023-04-24T02:32:28;6.57;;;3.25;;
69629;SDS011;56857;52.212;5.496;2023-04-24T02:34:54;8.50;;;4.25;;
69629;SDS011;56857;52.212;5.496;2023-04-24T02:37:19;8.98;;;4.32;;
69629;SDS011;56857;52.212;5.496;2023-04-24T02:39:44;6.22;;;3.47;;
69629;SDS011;56857;52.212;5.496;2023-04-24T02:42:10;7.32;;;4.25;;
69629;SDS011;56857;52.212;5.496;2023-04-24T02:44:35;7.77;;;4.63;;
69629;SDS011;56857;52.212;5.496;2023-04-24T02:47:00;8.43;;;4.85;;
69629;SDS011;56857;52.212;5.496;2023-04-24T02:49:26;8.30;;;4.87;;
69629;SDS011;56857;52.212;5.496;2023-04-24T02:51:51;8.13;;;5.03;;
69629;SDS011;56857;52.212;5.496;2023-04-24T02:54:16;6.70;;;4.43;;
69629;SDS011;56857;52.212;5.496;2023-04-24T02:56:42;9.20;;;4.60;;
69629;SDS011;56857;52.212;5.496;2023-04-24T02:59:07;6.32;;;3.30;;
69629;SDS011;56857;52.212;5.496;2023-04-24T03:01:33;6.47;;;3.65;;
69629;SDS011;56857;52.212;5.496;2023-04-24T03:03:59;8.75;;;4.55;;
69629;SDS011;56857;52.212;5.496;2023-04-24T03:06:24;6.38;;;3.00;;
69629;SDS011;56857;52.212;5.496;2023-04-24T03:08:50;6.15;;;3.70;;
69629;SDS011;56857;52.212;5.496;2023-04-24T03:11:16;5.38;;;2.88;;
69629;SDS011;56857;52.212;5.496;2023-04-24T03:13:41;6.53;;;3.15;;
69629;SDS011;56857;52.212;5.496;2023-04-24T03:16:07;5.67;;;2.83;;
69629;SDS011;56857;52.212;5.496;2023-04-24T03:18:33;5.40;;;2.83;;
69629;SDS011;56857;52.212;5.496;2023-04-24T03:20:59;5.75;;;2.15;;
69629;SDS011;56857;52.212;5.496;2023-04-24T03:23:24;3.95;;;2.10;;
69629;SDS011;56857;52.212;5.496;2023-04-24T03:25:49;4.28;;;2.22;;
69629;SDS011;56857;52.212;5.496;2023-04-24T03:28:15;3.63;;;1.75;;
69629;SDS011;56857;52.212;5.496;2023-04-24T03:30:40;2.50;;;1.40;;
69629;SDS011;56857;52.212;5.496;2023-04-24T03:33:05;3.17;;;2.28;;
69629;SDS011;56857;52.212;5.496;2023-04-24T03:35:31;5.30;;;1.60;;
69629;SDS011;56857;52.212;5.496;2023-04-24T03:37:56;4.30;;;1.60;;
69629;SDS011;56857;52.212;5.496;2023-04-24T03:40:22;6.50;;;1.80;;
69629;SDS011;56857;52.212;5.496;2023-04-24T03:42:47;1.52;;;1.10;;
69629;SDS011;56857;52.212;5.496;2023-04-24T03:45:12;2.88;;;1.58;;
69629;SDS011;56857;52.212;5.496;2023-04-24T03:47:38;3.45;;;1.65;;
69629;SDS011;56857;52.212;5.496;2023-04-24T03:50:03;4.38;;;1.83;;
69629;SDS011;56857;52.212;5.496;2023-04-24T03:52:29;2.78;;;1.70;;
69629;SDS011;56857;52.212;5.496;2023-04-24T03:54:54;4.90;;;1.92;;
69629;SDS011;56857;52.212;5.496;2023-04-24T03:57:21;3.25;;;1.95;;
69629;SDS011;56857;52.212;5.496;2023-04-24T03:59:46;5.07;;;2.25;;
69629;SDS011;56857;52.212;5.496;2023-04-24T04:02:12;4.05;;;2.10;;
69629;SDS011;56857;52.212;5.496;2023-04-24T04:04:37;6.85;;;1.90;;
69629;SDS011;56857;52.212;5.496;2023-04-24T04:07:03;4.72;;;2.10;;
69629;SDS011;56857;52.212;5.496;2023-04-24T04:09:28;4.35;;;2.10;;
69629;SDS011;56857;52.212;5.496;2023-04-24T04:11:54;5.60;;;1.80;;
69629;SDS011;56857;52.212;5.496;2023-04-24T04:14:19;4.63;;;2.08;;
69629;SDS011;56857;52.212;5.496;2023-04-24T04:16:44;5.67;;;1.83;;
69629;SDS011;56857;52.212;5.496;2023-04-24T04:19:10;4.00;;;1.63;;
69629;SDS011;56857;52.212;5.496;2023-04-24T04:21:35;2.90;;;1.45;;
69629;SDS011;56857;52.212;5.496;2023-04-24T04:24:01;3.85;;;1.70;;
69629;SDS011;56857;52.212;5.496;2023-04-24T04:26:26;3.20;;;1.67;;
69629;SDS011;56857;52.212;5.496;2023-04-24T04:28:51;5.47;;;2.15;;
69629;SDS011;56857;52.212;5.496;2023-04-24T04:31:18;4.07;;;2.10;;
69629;SDS011;56857;52.212;5.496;2023-04-24T04:33:46;5.50;;;2.42;;
69629;SDS011;56857;52.212;5.496;2023-04-24T04:36:12;4.33;;;2.23;;
69629;SDS011;56857;52.212;5.496;2023-04-24T04:38:37;4.35;;;2.30;;
69629;SDS011;56857;52.212;5.496;2023-04-24T04:41:04;5.95;;;2.10;;
69629;SDS011;56857;52.212;5.496;2023-04-24T04:43:30;5.03;;;2.35;;
69629;SDS011;56857;52.212;5.496;2023-04-24T04:45:55;4.53;;;2.40;;
69629;SDS011;56857;52.212;5.496;2023-04-24T04:48:22;5.20;;;2.10;;
69629;SDS011;56857;52.212;5.496;2023-04-24T04:50:47;5.60;;;1.90;;
69629;SDS011;56857;52.212;5.496;2023-04-24T04:53:13;5.07;;;1.98;;
69629;SDS011;56857;52.212;5.496;2023-04-24T04:55:38;5.17;;;2.20;;
69629;SDS011;56857;52.212;5.496;2023-04-24T04:58:03;4.03;;;2.00;;
69629;SDS011;56857;52.212;5.496;2023-04-24T05:00:29;5.03;;;1.60;;
69629;SDS011;56857;52.212;5.496;2023-04-24T05:02:54;6.75;;;2.45;;
69629;SDS011;56857;52.212;5.496;2023-04-24T05:05:19;6.33;;;1.60;;
69629;SDS011;56857;52.212;5.496;2023-04-24T05:07:45;5.07;;;2.17;;
69629;SDS011;56857;52.212;5.496;2023-04-24T05:10:11;3.83;;;1.80;;
69629;SDS011;56857;52.212;5.496;2023-04-24T05:12:36;4.10;;;1.90;;
69629;SDS011;56857;52.212;5.496;2023-04-24T05:15:02;3.45;;;1.92;;
69629;SDS011;56857;52.212;5.496;2023-04-24T05:17:28;6.05;;;2.13;;
69629;SDS011;56857;52.212;5.496;2023-04-24T05:19:53;5.88;;;2.58;;
69629;SDS011;56857;52.212;5.496;2023-04-24T05:22:18;6.63;;;2.22;;
69629;SDS011;56857;52.212;5.496;2023-04-24T05:24:44;6.38;;;2.08;;
69629;SDS011;56857;52.212;5.496;2023-04-24T05:27:09;5.35;;;2.08;;
69629;SDS011;56857;52.212;5.496;2023-04-24T05:29:34;6.55;;;2.42;;
69629;SDS011;56857;52.212;5.496;2023-04-24T05:32:00;7.15;;;2.33;;
69629;SDS011;56857;52.212;5.496;2023-04-24T05:34:25;6.72;;;2.88;;
69629;SDS011;56857;52.212;5.496;2023-04-24T05:36:51;5.90;;;2.55;;
69629;SDS011;56857;52.212;5.496;2023-04-24T05:39:17;6.15;;;2.47;;
69629;SDS011;56857;52.212;5.496;2023-04-24T05:41:42;6.32;;;2.40;;
69629;SDS011;56857;52.212;5.496;2023-04-24T05:44:08;5.32;;;2.35;;
69629;SDS011;56857;52.212;5.496;2023-04-24T05:46:34;5.10;;;2.50;;
69629;SDS011;56857;52.212;5.496;2023-04-24T05:49:00;8.88;;;3.50;;
69629;SDS011;56857;52.212;5.496;2023-04-24T05:51:25;6.63;;;2.70;;
69629;SDS011;56857;52.212;5.496;2023-04-24T05:53:51;5.40;;;2.60;;
69629;SDS011;56857;52.212;5.496;2023-04-24T05:56:16;6.53;;;2.90;;
69629;SDS011;56857;52.212;5.496;2023-04-24T05:58:42;6.53;;;2.85;;
69629;SDS011;56857;52.212;5.496;2023-04-24T06:01:07;8.50;;;2.70;;
69629;SDS011;56857;52.212;5.496;2023-04-24T06:03:32;5.97;;;2.72;;
69629;SDS011;56857;52.212;5.496;2023-04-24T06:05:58;6.40;;;2.95;;
69629;SDS011;56857;52.212;5.496;2023-04-24T06:08:24;6.80;;;3.10;;
69629;SDS011;56857;52.212;5.496;2023-04-24T06:10:49;6.05;;;3.00;;
69629;SDS011;56857;52.212;5.496;2023-04-24T06:13:15;6.25;;;2.83;;
69629;SDS011;56857;52.212;5.496;2023-04-24T06:15:40;5.90;;;3.13;;
69629;SDS011;56857;52.212;5.496;2023-04-24T06:18:06;7.97;;;3.03;;
69629;SDS011;56857;52.212;5.496;2023-04-24T06:20:31;5.68;;;2.70;;
69629;SDS011;56857;52.212;5.496;2023-04-24T06:22:57;7.70;;;2.97;;
69629;SDS011;56857;52.212;5.496;2023-04-24T06:25:24;5.90;;;2.90;;
69629;SDS011;56857;52.212;5.496;2023-04-24T06:27:50;7.80;;;2.50;;
69629;SDS011;56857;52.212;5.496;2023-04-24T06:30:15;7.35;;;2.50;;
69629;SDS011;56857;52.212;5.496;2023-04-24T06:32:41;4.13;;;1.80;;
69629;SDS011;56857;52.212;5.496;2023-04-24T06:35:06;4.60;;;1.75;;
69629;SDS011;56857;52.212;5.496;2023-04-24T06:37:32;3.10;;;1.45;;
69629;SDS011;56857;52.212;5.496;2023-04-24T06:39:57;3.53;;;1.13;;
69629;SDS011;56857;52.212;5.496;2023-04-24T06:42:25;6.43;;;2.35;;
69629;SDS011;56857;52.212;5.496;2023-04-24T06:44:51;5.13;;;2.42;;
69629;SDS011;56857;52.212;5.496;2023-04-24T06:47:16;7.90;;;4.47;;
69629;SDS011;56857;52.212;5.496;2023-04-24T06:49:41;9.55;;;5.25;;
69629;SDS011;56857;52.212;5.496;2023-04-24T06:52:07;9.98;;;5.25;;
69629;SDS011;56857;52.212;5.496;2023-04-24T06:54:33;15.65;;;7.00;;
69629;SDS011;56857;52.212;5.496;2023-04-24T06:56:59;13.98;;;7.95;;
69629;SDS011;56857;52.212;5.496;2023-04-24T06:59:24;13.75;;;7.68;;
69629;SDS011;56857;52.212;5.496;2023-04-24T07:01:50;12.65;;;7.15;;
69629;SDS011;56857;52.212;5.496;2023-04-24T07:04:15;13.52;;;7.10;;
69629;SDS011;56857;52.212;5.496;2023-04-24T07:06:41;14.17;;;7.67;;
69629;SDS011;56857;52.212;5.496;2023-04-24T07:09:06;14.70;;;7.68;;
69629;SDS011;56857;52.212;5.496;2023-04-24T07:11:31;11.77;;;6.80;;
69629;SDS011;56857;52.212;5.496;2023-04-24T07:13:57;14.43;;;7.40;;
69629;SDS011;56857;52.212;5.496;2023-04-24T07:16:22;17.53;;;7.97;;
69629;SDS011;56857;52.212;5.496;2023-04-24T07:18:47;13.20;;;7.47;;
69629;SDS011;56857;52.212;5.496;2023-04-24T07:21:13;14.13;;;8.23;;
69629;SDS011;56857;52.212;5.496;2023-04-24T07:23:38;13.52;;;8.40;;
69629;SDS011;56857;52.212;5.496;2023-04-24T07:26:04;16.25;;;8.15;;
69629;SDS011;56857;52.212;5.496;2023-04-24T07:28:30;16.52;;;9.73;;
69629;SDS011;56857;52.212;5.496;2023-04-24T07:30:55;14.82;;;7.93;;
69629;SDS011;56857;52.212;5.496;2023-04-24T07:33:24;19.33;;;7.03;;
69629;SDS011;56857;52.212;5.496;2023-04-24T07:35:49;17.17;;;8.77;;
69629;SDS011;56857;52.212;5.496;2023-04-24T07:38:14;16.08;;;8.02;;
69629;SDS011;56857;52.212;5.496;2023-04-24T07:40:40;16.23;;;8.73;;
69629;SDS011;56857;52.212;5.496;2023-04-24T07:43:05;16.20;;;7.60;;
69629;SDS011;56857;52.212;5.496;2023-04-24T07:45:31;16.38;;;7.60;;
69629;SDS011;56857;52.212;5.496;2023-04-24T07:47:56;13.07;;;6.93;;
69629;SDS011;56857;52.212;5.496;2023-04-24T07:50:22;16.67;;;7.43;;
69629;SDS011;56857;52.212;5.496;2023-04-24T07:52:47;15.93;;;7.63;;
69629;SDS011;56857;52.212;5.496;2023-04-24T07:55:13;14.55;;;7.50;;
69629;SDS011;56857;52.212;5.496;2023-04-24T07:57:38;16.30;;;7.97;;
69629;SDS011;56857;52.212;5.496;2023-04-24T08:00:04;16.98;;;8.00;;
69629;SDS011;56857;52.212;5.496;2023-04-24T08:02:30;19.23;;;7.22;;
69629;SDS011;56857;52.212;5.496;2023-04-24T08:04:55;18.85;;;7.57;;
69629;SDS011;56857;52.212;5.496;2023-04-24T08:07:20;13.32;;;7.97;;
69629;SDS011;56857;52.212;5.496;2023-04-24T08:09:46;13.55;;;7.47;;
69629;SDS011;56857;52.212;5.496;2023-04-24T08:12:11;13.23;;;8.02;;
69629;SDS011;56857;52.212;5.496;2023-04-24T08:14:36;18.20;;;7.72;;
69629;SDS011;56857;52.212;5.496;2023-04-24T08:17:02;14.90;;;7.45;;
69629;SDS011;56857;52.212;5.496;2023-04-24T08:19:27;14.13;;;7.93;;
69629;SDS011;56857;52.212;5.496;2023-04-24T08:21:53;15.07;;;7.97;;
69629;SDS011;56857;52.212;5.496;2023-04-24T08:24:18;18.45;;;6.97;;
69629;SDS011;56857;52.212;5.496;2023-04-24T08:26:43;14.90;;;5.00;;
69629;SDS011;56857;52.212;5.496;2023-04-24T08:29:10;13.23;;;4.80;;
69629;SDS011;56857;52.212;5.496;2023-04-24T08:31:35;10.43;;;4.40;;
69629;SDS011;56857;52.212;5.496;2023-04-24T08:34:07;11.88;;;5.22;;
69629;SDS011;56857;52.212;5.496;2023-04-24T08:36:32;17.30;;;5.78;;
69629;SDS011;56857;52.212;5.496;2023-04-24T08:38:57;18.70;;;5.82;;
69629;SDS011;56857;52.212;5.496;2023-04-24T08:41:23;17.90;;;5.32;;
69629;SDS011;56857;52.212;5.496;2023-04-24T08:43:49;16.20;;;5.40;;
69629;SDS011;56857;52.212;5.496;2023-04-24T08:46:16;12.63;;;3.97;;
69629;SDS011;56857;52.212;5.496;2023-04-24T08:48:43;15.25;;;4.15;;
69629;SDS011;56857;52.212;5.496;2023-04-24T08:51:09;13.00;;;4.47;;
69629;SDS011;56857;52.212;5.496;2023-04-24T08:53:35;12.23;;;5.03;;
69629;SDS011;56857;52.212;5.496;2023-04-24T08:56:01;12.63;;;4.68;;
69629;SDS011;56857;52.212;5.496;2023-04-24T08:58:27;15.05;;;4.65;;
69629;SDS011;56857;52.212;5.496;2023-04-24T09:00:57;14.40;;;4.75;;
69629;SDS011;56857;52.212;5.496;2023-04-24T09:03:23;17.63;;;4.80;;
69629;SDS011;56857;52.212;5.496;2023-04-24T09:05:49;16.75;;;3.88;;
69629;SDS011;56857;52.212;5.496;2023-04-24T09:08:16;19.02;;;5.13;;
69629;SDS011;56857;52.212;5.496;2023-04-24T09:10:43;10.68;;;4.22;;
69629;SDS011;56857;52.212;5.496;2023-04-24T09:13:08;16.00;;;5.20;;
69629;SDS011;56857;52.212;5.496;2023-04-24T09:15:34;14.20;;;4.93;;
69629;SDS011;56857;52.212;5.496;2023-04-24T09:17:59;17.92;;;5.28;;
69629;SDS011;56857;52.212;5.496;2023-04-24T09:20:25;19.23;;;6.00;;
69629;SDS011;56857;52.212;5.496;2023-04-24T09:22:53;14.02;;;4.97;;
69629;SDS011;56857;52.212;5.496;2023-04-24T09:25:19;11.10;;;3.95;;
69629;SDS011;56857;52.212;5.496;2023-04-24T09:27:45;15.52;;;4.78;;
69629;SDS011;56857;52.212;5.496;2023-04-24T09:30:11;15.63;;;4.70;;
69629;SDS011;56857;52.212;5.496;2023-04-24T09:32:38;14.80;;;5.90;;
69629;SDS011;56857;52.212;5.496;2023-04-24T09:37:46;16.10;;;4.20;;
69629;SDS011;56857;52.212;5.496;2023-04-24T09:40:14;11.68;;;4.00;;
69629;SDS011;56857;52.212;5.496;2023-04-24T09:42:54;10.45;;;3.25;;
69629;SDS011;56857;52.212;5.496;2023-04-24T09:45:21;12.63;;;3.75;;
69629;SDS011;56857;52.212;5.496;2023-04-24T09:47:46;12.15;;;4.13;;
69629;SDS011;56857;52.212;5.496;2023-04-24T09:50:16;11.50;;;3.45;;
69629;SDS011;56857;52.212;5.496;2023-04-24T09:52:46;14.52;;;3.40;;
69629;SDS011;56857;52.212;5.496;2023-04-24T09:55:20;12.05;;;2.80;;
69629;SDS011;56857;52.212;5.496;2023-04-24T09:57:53;8.18;;;2.58;;
69629;SDS011;56857;52.212;5.496;2023-04-24T10:00:24;7.95;;;2.90;;
69629;SDS011;56857;52.212;5.496;2023-04-24T10:02:57;12.43;;;3.13;;
69629;SDS011;56857;52.212;5.496;2023-04-24T10:07:56;12.18;;;3.03;;
69629;SDS011;56857;52.212;5.496;2023-04-24T10:10:23;12.45;;;3.97;;
69629;SDS011;56857;52.212;5.496;2023-04-24T10:12:48;11.35;;;4.47;;
69629;SDS011;56857;52.212;5.496;2023-04-24T10:15:17;13.93;;;3.97;;
69629;SDS011;56857;52.212;5.496;2023-04-24T10:17:43;9.73;;;3.08;;
69629;SDS011;56857;52.212;5.496;2023-04-24T10:20:10;12.32;;;3.30;;
69629;SDS011;56857;52.212;5.496;2023-04-24T10:22:36;13.77;;;4.03;;
69629;SDS011;56857;52.212;5.496;2023-04-24T10:25:03;9.32;;;3.53;;
69629;SDS011;56857;52.212;5.496;2023-04-24T10:27:29;12.45;;;3.53;;
69629;SDS011;56857;52.212;5.496;2023-04-24T10:29:56;8.18;;;3.25;;
69629;SDS011;56857;52.212;5.496;2023-04-24T10:32:22;10.45;;;3.13;;
69629;SDS011;56857;52.212;5.496;2023-04-24T10:37:24;8.35;;;3.35;;
69629;SDS011;56857;52.212;5.496;2023-04-24T10:39:51;8.70;;;2.58;;
69629;SDS011;56857;52.212;5.496;2023-04-24T10:42:16;6.38;;;2.28;;
69629;SDS011;56857;52.212;5.496;2023-04-24T10:44:42;5.80;;;2.38;;
69629;SDS011;56857;52.212;5.496;2023-04-24T10:47:16;8.05;;;3.00;;
69629;SDS011;56857;52.212;5.496;2023-04-24T10:49:42;4.63;;;1.80;;
69629;SDS011;56857;52.212;5.496;2023-04-24T10:52:08;8.73;;;2.20;;
69629;SDS011;56857;52.212;5.496;2023-04-24T10:54:34;8.65;;;2.60;;
69629;SDS011;56857;52.212;5.496;2023-04-24T10:59:44;7.57;;;2.28;;
69629;SDS011;56857;52.212;5.496;2023-04-24T11:02:11;8.15;;;2.58;;
69629;SDS011;56857;52.212;5.496;2023-04-24T11:04:40;7.10;;;2.95;;
69629;SDS011;56857;52.212;5.496;2023-04-24T11:07:05;10.15;;;2.65;;
69629;SDS011;56857;52.212;5.496;2023-04-24T11:09:31;7.43;;;2.08;;
69629;SDS011;56857;52.212;5.496;2023-04-24T11:12:07;5.00;;;2.25;;
69629;SDS011;56857;52.212;5.496;2023-04-24T11:17:35;6.53;;;2.22;;
69629;SDS011;56857;52.212;5.496;2023-04-24T11:20:09;5.05;;;2.08;;
69629;SDS011;56857;52.212;5.496;2023-04-24T11:22:37;4.90;;;1.90;;
69629;SDS011;56857;52.212;5.496;2023-04-24T11:25:04;6.47;;;1.98;;
69629;SDS011;56857;52.212;5.496;2023-04-24T11:27:31;9.25;;;1.98;;
69629;SDS011;56857;52.212;5.496;2023-04-24T11:30:03;8.20;;;2.00;;
69629;SDS011;56857;52.212;5.496;2023-04-24T11:32:29;6.10;;;2.17;;
69629;SDS011;56857;52.212;5.496;2023-04-24T11:35:05;5.38;;;1.98;;
69629;SDS011;56857;52.212;5.496;2023-04-24T11:37:36;4.15;;;1.50;;
69629;SDS011;56857;52.212;5.496;2023-04-24T11:40:03;5.15;;;1.80;;
69629;SDS011;56857;52.212;5.496;2023-04-24T11:42:36;4.30;;;1.50;;
69629;SDS011;56857;52.212;5.496;2023-04-24T11:45:07;4.90;;;1.88;;
69629;SDS011;56857;52.212;5.496;2023-04-24T11:47:33;3.20;;;1.25;;
69629;SDS011;56857;52.212;5.496;2023-04-24T11:49:59;2.90;;;1.20;;
69629;SDS011;56857;52.212;5.496;2023-04-24T11:52:25;5.95;;;1.60;;
69629;SDS011;56857;52.212;5.496;2023-04-24T11:54:52;4.32;;;1.35;;
69629;SDS011;56857;52.212;5.496;2023-04-24T11:57:20;5.05;;;1.50;;
69629;SDS011;56857;52.212;5.496;2023-04-24T11:59:47;3.78;;;1.55;;
69629;SDS011;56857;52.212;5.496;2023-04-24T12:02:22;2.58;;;1.30;;
69629;SDS011;56857;52.212;5.496;2023-04-24T12:04:51;6.47;;;1.67;;
69629;SDS011;56857;52.212;5.496;2023-04-24T12:07:21;4.93;;;1.20;;
69629;SDS011;56857;52.212;5.496;2023-04-24T12:09:54;4.80;;;1.50;;
69629;SDS011;56857;52.212;5.496;2023-04-24T12:12:25;3.85;;;1.50;;
69629;SDS011;56857;52.212;5.496;2023-04-24T12:14:55;4.85;;;1.98;;
69629;SDS011;56857;52.212;5.496;2023-04-24T12:17:24;6.90;;;2.22;;
69629;SDS011;56857;52.212;5.496;2023-04-24T12:19:57;6.43;;;2.20;;
69629;SDS011;56857;52.212;5.496;2023-04-24T12:22:23;6.75;;;1.83;;
69629;SDS011;56857;52.212;5.496;2023-04-24T12:27:43;3.35;;;1.42;;
69629;SDS011;56857;52.212;5.496;2023-04-24T12:30:10;6.72;;;1.85;;
69629;SDS011;56857;52.212;5.496;2023-04-24T12:32:45;7.68;;;1.83;;
69629;SDS011;56857;52.212;5.496;2023-04-24T12:35:21;6.13;;;2.45;;
69629;SDS011;56857;52.212;5.496;2023-04-24T12:37:47;6.55;;;1.50;;
69629;SDS011;56857;52.212;5.496;2023-04-24T12:40:13;6.43;;;1.95;;
69629;SDS011;56857;52.212;5.496;2023-04-24T12:42:43;4.80;;;1.40;;
69629;SDS011;56857;52.212;5.496;2023-04-24T12:45:13;3.83;;;1.60;;
69629;SDS011;56857;52.212;5.496;2023-04-24T12:47:40;5.38;;;1.48;;
69629;SDS011;56857;52.212;5.496;2023-04-24T12:50:08;6.07;;;1.60;;
69629;SDS011;56857;52.212;5.496;2023-04-24T12:52:37;6.35;;;1.90;;
69629;SDS011;56857;52.212;5.496;2023-04-24T12:55:03;7.35;;;1.92;;
69629;SDS011;56857;52.212;5.496;2023-04-24T12:57:29;7.65;;;2.17;;
69629;SDS011;56857;52.212;5.496;2023-04-24T12:59:55;13.00;;;2.75;;
69629;SDS011;56857;52.212;5.496;2023-04-24T13:02:26;8.13;;;2.92;;
69629;SDS011;56857;52.212;5.496;2023-04-24T13:04:54;8.55;;;2.63;;
69629;SDS011;56857;52.212;5.496;2023-04-24T13:07:20;13.77;;;2.63;;
69629;SDS011;56857;52.212;5.496;2023-04-24T13:09:45;7.80;;;2.33;;
69629;SDS011;56857;52.212;5.496;2023-04-24T13:12:12;9.55;;;3.00;;
69629;SDS011;56857;52.212;5.496;2023-04-24T13:14:37;10.20;;;2.92;;
69629;SDS011;56857;52.212;5.496;2023-04-24T13:17:03;11.00;;;3.00;;
69629;SDS011;56857;52.212;5.496;2023-04-24T13:19:29;6.93;;;2.42;;
69629;SDS011;56857;52.212;5.496;2023-04-24T13:22:00;12.05;;;3.13;;
69629;SDS011;56857;52.212;5.496;2023-04-24T13:24:25;11.05;;;3.00;;
69629;SDS011;56857;52.212;5.496;2023-04-24T13:26:50;11.02;;;3.25;;
69629;SDS011;56857;52.212;5.496;2023-04-24T13:29:18;12.82;;;3.13;;
69629;SDS011;56857;52.212;5.496;2023-04-24T13:31:43;9.95;;;2.95;;
69629;SDS011;56857;52.212;5.496;2023-04-24T13:34:09;15.05;;;3.30;;
69629;SDS011;56857;52.212;5.496;2023-04-24T13:36:34;11.90;;;3.25;;
69629;SDS011;56857;52.212;5.496;2023-04-24T13:39:00;13.30;;;3.95;;
69629;SDS011;56857;52.212;5.496;2023-04-24T13:41:25;15.02;;;3.03;;
69629;SDS011;56857;52.212;5.496;2023-04-24T13:43:50;11.85;;;3.65;;
69629;SDS011;56857;52.212;5.496;2023-04-24T13:46:16;12.73;;;4.32;;
69629;SDS011;56857;52.212;5.496;2023-04-24T13:48:41;13.57;;;3.10;;
69629;SDS011;56857;52.212;5.496;2023-04-24T13:51:07;14.48;;;4.63;;
69629;SDS011;56857;52.212;5.496;2023-04-24T13:53:32;12.27;;;3.50;;
69629;SDS011;56857;52.212;5.496;2023-04-24T13:55:58;16.77;;;3.28;;
69629;SDS011;56857;52.212;5.496;2023-04-24T13:58:24;11.32;;;2.75;;
69629;SDS011;56857;52.212;5.496;2023-04-24T14:00:50;12.10;;;2.80;;
69629;SDS011;56857;52.212;5.496;2023-04-24T14:03:15;14.35;;;3.92;;
69629;SDS011;56857;52.212;5.496;2023-04-24T14:05:40;9.18;;;3.25;;
69629;SDS011;56857;52.212;5.496;2023-04-24T14:08:27;11.50;;;3.40;;
69629;SDS011;56857;52.212;5.496;2023-04-24T14:10:52;12.95;;;4.05;;
69629;SDS011;56857;52.212;5.496;2023-04-24T14:13:17;10.52;;;3.65;;
69629;SDS011;56857;52.212;5.496;2023-04-24T14:15:43;13.15;;;3.42;;
69629;SDS011;56857;52.212;5.496;2023-04-24T14:18:08;10.63;;;3.22;;
69629;SDS011;56857;52.212;5.496;2023-04-24T14:20:34;12.20;;;3.35;;
69629;SDS011;56857;52.212;5.496;2023-04-24T14:22:59;8.77;;;2.35;;
69629;SDS011;56857;52.212;5.496;2023-04-24T14:25:25;8.40;;;2.90;;
69629;SDS011;56857;52.212;5.496;2023-04-24T14:27:51;9.65;;;2.30;;
69629;SDS011;56857;52.212;5.496;2023-04-24T14:30:16;10.32;;;3.33;;
69629;SDS011;56857;52.212;5.496;2023-04-24T14:32:44;10.68;;;3.65;;
69629;SDS011;56857;52.212;5.496;2023-04-24T14:35:10;12.40;;;4.28;;
69629;SDS011;56857;52.212;5.496;2023-04-24T14:37:35;14.18;;;4.45;;
69629;SDS011;56857;52.212;5.496;2023-04-24T14:40:04;15.07;;;3.08;;
69629;SDS011;56857;52.212;5.496;2023-04-24T14:42:35;9.35;;;2.95;;
69629;SDS011;56857;52.212;5.496;2023-04-24T14:45:04;12.10;;;3.50;;
69629;SDS011;56857;52.212;5.496;2023-04-24T14:47:29;12.52;;;4.05;;
69629;SDS011;56857;52.212;5.496;2023-04-24T14:49:55;10.55;;;3.28;;
69629;SDS011;56857;52.212;5.496;2023-04-24T14:52:20;10.57;;;3.17;;
69629;SDS011;56857;52.212;5.496;2023-04-24T14:54:46;10.15;;;3.40;;